Lucky Thirteen — WDD8654 — position and weather

sailwx.info

Track history (hours):
 
Tides and Currents Weather Stations Pressure Air Temp Water Temp Dewpoint Dewpoint Depression Visibility Wind Speed Wind Dir Waves Ship Positions

Lucky Thirteen

Owner: Kristine L Inc., Barnegat Light, NJ. More information available from US FCC via Universal Licensing System and Coast Guard Vessel Documentation Center.

Last reported at 2014-Oct-02 07:33 UTC. Time now 2014-Oct-02 08:24 UTC.
Position N 39°45' W 074°07'.

Length 23 m.

Type: Fishing. MMSI: 367300990.

Date/timePositionNaut miles runAvg speedWind from/ knotsBaromVisibWave heightAir tempDewpointWater temp
2014-Oct-02 07:33N 39°45' W 074°07'0 0.0
2014-Oct-02 05:09N 39°45' W 074°07'0 0.0
2014-Oct-02 04:18N 39°45' W 074°07'0 0.0
2014-Oct-02 03:33N 39°45' W 074°07'0 0.0
2014-Oct-02 02:33N 39°45' W 074°07'0 0.0
2014-Oct-01 17:24N 39°45' W 074°07'0 0.0
2014-Oct-01 16:15N 39°45' W 074°07'0 0.0
2014-Oct-01 15:33N 39°45' W 074°07'0 0.0
2014-Oct-01 14:21N 39°45' W 074°07'0 0.0
2014-Oct-01 13:15N 39°45' W 074°07'0 0.0
2014-Oct-01 12:33N 39°45' W 074°07'0 0.0
2014-Oct-01 11:33N 39°45' W 074°07'0 0.0
2014-Oct-01 10:33N 39°45' W 074°07'0 0.0
2014-Oct-01 09:33N 39°45' W 074°07'0 0.0
2014-Oct-01 08:21N 39°45' W 074°07'0 0.0
2014-Oct-01 07:33N 39°45' W 074°07'0 0.0
2014-Oct-01 06:27N 39°45' W 074°07'0 0.0
2014-Oct-01 05:30N 39°45' W 074°07'0 0.0
2014-Oct-01 03:21N 39°45' W 074°07'0 0.0
2014-Sep-30 23:12N 39°45' W 074°07'0 0.0
2014-Sep-30 21:24N 39°45' W 074°07'0 0.0
2014-Sep-30 20:30N 39°45' W 074°07'0 0.0
2014-Sep-30 19:30N 39°45' W 074°07'0 0.0
2014-Sep-30 18:24N 39°45' W 074°07'0 0.0
2014-Sep-30 17:24N 39°45' W 074°07'0 0.0
2014-Sep-30 16:31N 39°45' W 074°07'0 0.0
2014-Sep-30 15:25N 39°45' W 074°07'0 0.0
2014-Sep-30 14:28N 39°45' W 074°07'0 0.0
2014-Sep-30 13:10N 39°45' W 074°07'0 0.0
2014-Sep-30 12:28N 39°45' W 074°07'0 0.0
2014-Sep-30 11:28N 39°45' W 074°07'0 0.0
2014-Sep-30 10:22N 39°45' W 074°07'0 0.0
2014-Sep-30 09:10N 39°45' W 074°07'0 0.0
2014-Sep-30 08:16N 39°45' W 074°07'0 0.0
2014-Sep-30 07:31N 39°45' W 074°07'0 0.0
2014-Sep-30 06:31N 39°45' W 074°07'0 0.0
2014-Sep-30 05:25N 39°45' W 074°07'0 0.0
2014-Sep-30 04:31N 39°45' W 074°07'0 0.0
2014-Sep-30 02:13N 39°45' W 074°07'0 0.0
2014-Sep-30 01:22N 39°45' W 074°07'0 0.0
2014-Sep-30 00:28N 39°45' W 074°07'0 0.0
2014-Sep-29 23:28N 39°45' W 074°07'0 0.0
2014-Sep-29 22:16N 39°45' W 074°07'0 0.0
2014-Sep-29 21:28N 39°45' W 074°07'0 0.0
2014-Sep-29 20:28N 39°45' W 074°07'0 0.0
2014-Sep-29 19:28N 39°45' W 074°07'0 0.0
2014-Sep-29 18:22N 39°45' W 074°07'0 0.0
2014-Sep-29 17:28N 39°45' W 074°07'0 0.0
2014-Sep-29 16:28N 39°45' W 074°07'0 0.0
2014-Sep-29 15:16N 39°45' W 074°07'0 0.0
2014-Sep-29 14:16N 39°45' W 074°07'0 0.0
2014-Sep-29 13:04N 39°45' W 074°07'0 0.0
2014-Sep-29 12:28N 39°45' W 074°07'0 0.0
2014-Sep-29 11:28N 39°45' W 074°07'0 0.0
2014-Sep-29 10:19N 39°45' W 074°07'0 0.0
2014-Sep-29 09:16N 39°45' W 074°07'0 0.0
2014-Sep-29 08:28N 39°45' W 074°07'0 0.0
2014-Sep-29 07:28N 39°45' W 074°07'0 0.0
2014-Sep-29 06:19N 39°45' W 074°07'0 0.0
2014-Sep-29 05:28N 39°45' W 074°07'0 0.0
2014-Sep-29 04:16N 39°45' W 074°07'0 0.0
2014-Sep-29 03:31N 39°45' W 074°07'0 0.0
2014-Sep-29 02:31N 39°45' W 074°07'0 0.0
2014-Sep-29 01:28N 39°45' W 074°07'0 0.0
2014-Sep-29 00:31N 39°45' W 074°07'0 0.0
2014-Sep-28 23:31N 39°45' W 074°07'0 0.0
2014-Sep-28 22:22N 39°45' W 074°07'4 4.5
2014-Sep-28 21:33N 39°47' W 074°03'41 7.6
2014-Sep-28 16:10N 40°28' W 073°58'6 7.5
2014-Sep-28 15:21N 40°29' W 074°06'7 6.7
2014-Sep-28 14:21N 40°29' W 074°15'  
Track history (hours):
 
Tides and Currents Weather Stations Pressure Air Temp Water Temp Dewpoint Dewpoint Depression Visibility Wind Speed Wind Dir Waves Ship Positions

Lucky Thirteen

Owner: Kristine L Inc., Barnegat Light, NJ. More information available from US FCC via Universal Licensing System and Coast Guard Vessel Documentation Center.

Last reported at 2014-Oct-02 07:33 UTC. Time now 2014-Oct-02 08:24 UTC.
Position N 39°45' W 074°07'.

Length 23 m.

Type: Fishing. MMSI: 367300990.

Date/timePositionNaut miles runAvg speedWind from/ knotsBaromVisibWave heightAir tempDewpointWater temp
2014-Oct-02 07:33N 39°45' W 074°07'0 0.0
2014-Oct-02 05:09N 39°45' W 074°07'0 0.0
2014-Oct-02 04:18N 39°45' W 074°07'0 0.0
2014-Oct-02 03:33N 39°45' W 074°07'0 0.0
2014-Oct-02 02:33N 39°45' W 074°07'0 0.0
2014-Oct-01 17:24N 39°45' W 074°07'0 0.0
2014-Oct-01 16:15N 39°45' W 074°07'0 0.0
2014-Oct-01 15:33N 39°45' W 074°07'0 0.0
2014-Oct-01 14:21N 39°45' W 074°07'0 0.0
2014-Oct-01 13:15N 39°45' W 074°07'0 0.0
2014-Oct-01 12:33N 39°45' W 074°07'0 0.0
2014-Oct-01 11:33N 39°45' W 074°07'0 0.0
2014-Oct-01 10:33N 39°45' W 074°07'0 0.0
2014-Oct-01 09:33N 39°45' W 074°07'0 0.0
2014-Oct-01 08:21N 39°45' W 074°07'0 0.0
2014-Oct-01 07:33N 39°45' W 074°07'0 0.0
2014-Oct-01 06:27N 39°45' W 074°07'0 0.0
2014-Oct-01 05:30N 39°45' W 074°07'0 0.0
2014-Oct-01 03:21N 39°45' W 074°07'0 0.0
2014-Sep-30 23:12N 39°45' W 074°07'0 0.0
2014-Sep-30 21:24N 39°45' W 074°07'0 0.0
2014-Sep-30 20:30N 39°45' W 074°07'0 0.0
2014-Sep-30 19:30N 39°45' W 074°07'0 0.0
2014-Sep-30 18:24N 39°45' W 074°07'0 0.0
2014-Sep-30 17:24N 39°45' W 074°07'0 0.0
2014-Sep-30 16:31N 39°45' W 074°07'0 0.0
2014-Sep-30 15:25N 39°45' W 074°07'0 0.0
2014-Sep-30 14:28N 39°45' W 074°07'0 0.0
2014-Sep-30 13:10N 39°45' W 074°07'0 0.0
2014-Sep-30 12:28N 39°45' W 074°07'0 0.0
2014-Sep-30 11:28N 39°45' W 074°07'0 0.0
2014-Sep-30 10:22N 39°45' W 074°07'0 0.0
2014-Sep-30 09:10N 39°45' W 074°07'0 0.0
2014-Sep-30 08:16N 39°45' W 074°07'0 0.0
2014-Sep-30 07:31N 39°45' W 074°07'0 0.0
2014-Sep-30 06:31N 39°45' W 074°07'0 0.0
2014-Sep-30 05:25N 39°45' W 074°07'0 0.0
2014-Sep-30 04:31N 39°45' W 074°07'0 0.0
2014-Sep-30 02:13N 39°45' W 074°07'0 0.0
2014-Sep-30 01:22N 39°45' W 074°07'0 0.0
2014-Sep-30 00:28N 39°45' W 074°07'0 0.0
2014-Sep-29 23:28N 39°45' W 074°07'0 0.0
2014-Sep-29 22:16N 39°45' W 074°07'0 0.0
2014-Sep-29 21:28N 39°45' W 074°07'0 0.0
2014-Sep-29 20:28N 39°45' W 074°07'0 0.0
2014-Sep-29 19:28N 39°45' W 074°07'0 0.0
2014-Sep-29 18:22N 39°45' W 074°07'0 0.0
2014-Sep-29 17:28N 39°45' W 074°07'0 0.0
2014-Sep-29 16:28N 39°45' W 074°07'0 0.0
2014-Sep-29 15:16N 39°45' W 074°07'0 0.0
2014-Sep-29 14:16N 39°45' W 074°07'0 0.0
2014-Sep-29 13:04N 39°45' W 074°07'0 0.0
2014-Sep-29 12:28N 39°45' W 074°07'0 0.0
2014-Sep-29 11:28N 39°45' W 074°07'0 0.0
2014-Sep-29 10:19N 39°45' W 074°07'0 0.0
2014-Sep-29 09:16N 39°45' W 074°07'0 0.0
2014-Sep-29 08:28N 39°45' W 074°07'0 0.0
2014-Sep-29 07:28N 39°45' W 074°07'0 0.0
2014-Sep-29 06:19N 39°45' W 074°07'0 0.0
2014-Sep-29 05:28N 39°45' W 074°07'0 0.0
2014-Sep-29 04:16N 39°45' W 074°07'0 0.0
2014-Sep-29 03:31N 39°45' W 074°07'0 0.0
2014-Sep-29 02:31N 39°45' W 074°07'0 0.0
2014-Sep-29 01:28N 39°45' W 074°07'0 0.0
2014-Sep-29 00:31N 39°45' W 074°07'0 0.0
2014-Sep-28 23:31N 39°45' W 074°07'0 0.0
2014-Sep-28 22:22N 39°45' W 074°07'4 4.5
2014-Sep-28 21:33N 39°47' W 074°03'41 7.6
2014-Sep-28 16:10N 40°28' W 073°58'6 7.5
2014-Sep-28 15:21N 40°29' W 074°06'7 6.7
2014-Sep-28 14:21N 40°29' W 074°15'  

Dump ship's entire track history